sensor_id;sensor_type;location;lat;lon;timestamp;P1;durP1;ratioP1;P2;durP2;ratioP2
29162;SDS011;20331;53.144;8.208;2024-02-23T00:01:02;0.20;;;0.20;;
29162;SDS011;20331;53.144;8.208;2024-02-23T00:06:24;1.13;;;0.30;;
29162;SDS011;20331;53.144;8.208;2024-02-23T00:11:50;0.20;;;0.20;;
29162;SDS011;20331;53.144;8.208;2024-02-23T00:17:12;1.80;;;0.28;;
29162;SDS011;20331;53.144;8.208;2024-02-23T00:22:34;1.67;;;0.40;;
29162;SDS011;20331;53.144;8.208;2024-02-23T00:27:55;0.43;;;0.10;;
29162;SDS011;20331;53.144;8.208;2024-02-23T00:33:17;1.83;;;0.13;;
29162;SDS011;20331;53.144;8.208;2024-02-23T00:38:39;0.10;;;0.00;;
29162;SDS011;20331;53.144;8.208;2024-02-23T00:44:01;0.38;;;0.00;;
29162;SDS011;20331;53.144;8.208;2024-02-23T00:49:23;0.47;;;0.20;;
29162;SDS011;20331;53.144;8.208;2024-02-23T00:54:45;0.10;;;0.10;;
29162;SDS011;20331;53.144;8.208;2024-02-23T01:00:07;0.00;;;0.00;;
29162;SDS011;20331;53.144;8.208;2024-02-23T01:05:30;0.50;;;0.03;;
29162;SDS011;20331;53.144;8.208;2024-02-23T01:10:52;1.00;;;0.20;;
29162;SDS011;20331;53.144;8.208;2024-02-23T01:16:15;0.93;;;0.15;;
29162;SDS011;20331;53.144;8.208;2024-02-23T01:21:37;1.98;;;0.13;;
29162;SDS011;20331;53.144;8.208;2024-02-23T01:26:59;0.25;;;0.15;;
29162;SDS011;20331;53.144;8.208;2024-02-23T01:32:21;0.57;;;0.20;;
29162;SDS011;20331;53.144;8.208;2024-02-23T01:37:43;1.90;;;0.30;;
29162;SDS011;20331;53.144;8.208;2024-02-23T01:43:05;1.73;;;0.50;;
29162;SDS011;20331;53.144;8.208;2024-02-23T01:48:27;3.22;;;0.40;;
29162;SDS011;20331;53.144;8.208;2024-02-23T01:53:50;0.40;;;0.20;;
29162;SDS011;20331;53.144;8.208;2024-02-23T01:59:12;1.27;;;0.20;;
29162;SDS011;20331;53.144;8.208;2024-02-23T02:04:34;0.10;;;0.10;;
29162;SDS011;20331;53.144;8.208;2024-02-23T02:09:56;1.38;;;0.30;;
29162;SDS011;20331;53.144;8.208;2024-02-23T02:15:18;0.10;;;0.10;;
29162;SDS011;20331;53.144;8.208;2024-02-23T02:20:44;0.90;;;0.20;;
29162;SDS011;20331;53.144;8.208;2024-02-23T02:26:15;0.20;;;0.10;;
29162;SDS011;20331;53.144;8.208;2024-02-23T02:31:37;0.25;;;0.10;;
29162;SDS011;20331;53.144;8.208;2024-02-23T02:37:00;0.82;;;0.20;;
29162;SDS011;20331;53.144;8.208;2024-02-23T02:42:22;0.90;;;0.30;;
29162;SDS011;20331;53.144;8.208;2024-02-23T02:47:44;0.55;;;0.30;;
29162;SDS011;20331;53.144;8.208;2024-02-23T02:53:06;3.15;;;0.32;;
29162;SDS011;20331;53.144;8.208;2024-02-23T02:58:28;3.05;;;0.60;;
29162;SDS011;20331;53.144;8.208;2024-02-23T03:03:49;4.72;;;0.93;;
29162;SDS011;20331;53.144;8.208;2024-02-23T03:09:11;6.13;;;0.95;;
29162;SDS011;20331;53.144;8.208;2024-02-23T03:14:33;5.70;;;1.02;;
29162;SDS011;20331;53.144;8.208;2024-02-23T03:19:58;6.60;;;1.10;;
29162;SDS011;20331;53.144;8.208;2024-02-23T03:25:20;4.68;;;1.30;;
29162;SDS011;20331;53.144;8.208;2024-02-23T03:30:42;10.55;;;1.50;;
29162;SDS011;20331;53.144;8.208;2024-02-23T03:36:04;3.35;;;1.30;;
29162;SDS011;20331;53.144;8.208;2024-02-23T03:41:26;5.72;;;1.58;;
29162;SDS011;20331;53.144;8.208;2024-02-23T03:46:48;8.32;;;1.83;;
29162;SDS011;20331;53.144;8.208;2024-02-23T03:52:10;5.45;;;2.00;;
29162;SDS011;20331;53.144;8.208;2024-02-23T03:57:31;4.93;;;1.70;;
29162;SDS011;20331;53.144;8.208;2024-02-23T04:02:53;6.53;;;1.98;;
29162;SDS011;20331;53.144;8.208;2024-02-23T04:08:18;4.87;;;1.63;;
29162;SDS011;20331;53.144;8.208;2024-02-23T04:13:40;4.18;;;1.50;;
29162;SDS011;20331;53.144;8.208;2024-02-23T04:19:02;3.45;;;1.17;;
29162;SDS011;20331;53.144;8.208;2024-02-23T04:24:23;6.63;;;1.02;;
29162;SDS011;20331;53.144;8.208;2024-02-23T04:29:47;3.92;;;0.80;;
29162;SDS011;20331;53.144;8.208;2024-02-23T04:35:09;1.27;;;0.68;;
29162;SDS011;20331;53.144;8.208;2024-02-23T04:40:31;5.90;;;0.90;;
29162;SDS011;20331;53.144;8.208;2024-02-23T04:45:53;1.73;;;0.77;;
29162;SDS011;20331;53.144;8.208;2024-02-23T04:51:15;2.58;;;0.80;;
29162;SDS011;20331;53.144;8.208;2024-02-23T04:56:36;2.75;;;0.80;;
29162;SDS011;20331;53.144;8.208;2024-02-23T05:01:58;4.18;;;1.00;;
29162;SDS011;20331;53.144;8.208;2024-02-23T05:07:20;2.60;;;1.20;;
29162;SDS011;20331;53.144;8.208;2024-02-23T05:12:42;3.08;;;1.20;;
29162;SDS011;20331;53.144;8.208;2024-02-23T05:18:04;3.90;;;1.70;;
29162;SDS011;20331;53.144;8.208;2024-02-23T05:23:26;6.30;;;1.90;;
29162;SDS011;20331;53.144;8.208;2024-02-23T05:28:48;9.63;;;2.40;;
29162;SDS011;20331;53.144;8.208;2024-02-23T05:34:10;7.00;;;2.72;;
29162;SDS011;20331;53.144;8.208;2024-02-23T05:39:31;6.68;;;2.40;;
29162;SDS011;20331;53.144;8.208;2024-02-23T05:44:53;5.35;;;2.45;;
29162;SDS011;20331;53.144;8.208;2024-02-23T05:50:15;7.30;;;3.13;;
29162;SDS011;20331;53.144;8.208;2024-02-23T05:55:37;5.93;;;2.63;;
29162;SDS011;20331;53.144;8.208;2024-02-23T06:00:59;2.50;;;2.10;;
29162;SDS011;20331;53.144;8.208;2024-02-23T06:06:20;6.10;;;2.55;;
29162;SDS011;20331;53.144;8.208;2024-02-23T06:11:42;5.43;;;2.78;;
29162;SDS011;20331;53.144;8.208;2024-02-23T06:17:04;5.32;;;2.40;;
29162;SDS011;20331;53.144;8.208;2024-02-23T06:22:28;5.43;;;2.03;;
29162;SDS011;20331;53.144;8.208;2024-02-23T06:27:50;6.30;;;2.67;;
29162;SDS011;20331;53.144;8.208;2024-02-23T06:33:12;8.52;;;2.70;;
29162;SDS011;20331;53.144;8.208;2024-02-23T06:38:34;7.43;;;2.75;;
29162;SDS011;20331;53.144;8.208;2024-02-23T06:43:56;8.07;;;2.92;;
29162;SDS011;20331;53.144;8.208;2024-02-23T06:49:18;11.95;;;2.50;;
29162;SDS011;20331;53.144;8.208;2024-02-23T06:54:40;7.63;;;2.38;;
29162;SDS011;20331;53.144;8.208;2024-02-23T07:00:02;9.27;;;2.38;;
29162;SDS011;20331;53.144;8.208;2024-02-23T07:05:24;8.32;;;2.38;;
29162;SDS011;20331;53.144;8.208;2024-02-23T07:10:47;10.60;;;2.25;;
29162;SDS011;20331;53.144;8.208;2024-02-23T07:16:08;6.25;;;2.22;;
29162;SDS011;20331;53.144;8.208;2024-02-23T07:21:30;8.68;;;1.83;;
29162;SDS011;20331;53.144;8.208;2024-02-23T07:26:52;8.40;;;1.98;;
29162;SDS011;20331;53.144;8.208;2024-02-23T07:32:13;5.75;;;2.10;;
29162;SDS011;20331;53.144;8.208;2024-02-23T07:37:36;9.90;;;2.00;;
29162;SDS011;20331;53.144;8.208;2024-02-23T07:42:58;6.03;;;1.95;;
29162;SDS011;20331;53.144;8.208;2024-02-23T07:48:19;9.13;;;2.20;;
29162;SDS011;20331;53.144;8.208;2024-02-23T07:53:41;7.85;;;2.00;;
29162;SDS011;20331;53.144;8.208;2024-02-23T07:59:03;12.35;;;2.17;;
29162;SDS011;20331;53.144;8.208;2024-02-23T08:04:25;8.50;;;2.30;;
29162;SDS011;20331;53.144;8.208;2024-02-23T08:09:46;9.43;;;2.35;;
29162;SDS011;20331;53.144;8.208;2024-02-23T08:15:09;11.88;;;2.50;;
29162;SDS011;20331;53.144;8.208;2024-02-23T08:20:30;7.38;;;2.00;;
29162;SDS011;20331;53.144;8.208;2024-02-23T08:25:52;5.57;;;1.73;;
29162;SDS011;20331;53.144;8.208;2024-02-23T08:31:15;10.13;;;1.95;;
29162;SDS011;20331;53.144;8.208;2024-02-23T08:36:37;5.90;;;1.60;;
29162;SDS011;20331;53.144;8.208;2024-02-23T08:41:59;4.07;;;1.83;;
29162;SDS011;20331;53.144;8.208;2024-02-23T08:47:21;7.63;;;1.83;;
29162;SDS011;20331;53.144;8.208;2024-02-23T08:52:43;7.68;;;1.83;;
29162;SDS011;20331;53.144;8.208;2024-02-23T08:58:04;7.63;;;1.63;;
29162;SDS011;20331;53.144;8.208;2024-02-23T09:03:27;6.10;;;1.50;;
29162;SDS011;20331;53.144;8.208;2024-02-23T09:08:49;7.38;;;1.30;;
29162;SDS011;20331;53.144;8.208;2024-02-23T09:14:11;9.93;;;1.40;;
29162;SDS011;20331;53.144;8.208;2024-02-23T09:19:32;3.60;;;1.30;;
29162;SDS011;20331;53.144;8.208;2024-02-23T09:24:54;7.07;;;1.33;;
29162;SDS011;20331;53.144;8.208;2024-02-23T09:30:17;5.88;;;1.40;;
29162;SDS011;20331;53.144;8.208;2024-02-23T09:35:40;8.85;;;0.90;;
29162;SDS011;20331;53.144;8.208;2024-02-23T09:41:03;5.72;;;1.05;;
29162;SDS011;20331;53.144;8.208;2024-02-23T09:46:25;6.28;;;1.00;;
29162;SDS011;20331;53.144;8.208;2024-02-23T09:51:47;3.10;;;0.98;;
29162;SDS011;20331;53.144;8.208;2024-02-23T09:57:10;5.43;;;1.00;;
29162;SDS011;20331;53.144;8.208;2024-02-23T10:02:34;2.10;;;0.82;;
29162;SDS011;20331;53.144;8.208;2024-02-23T10:07:58;6.13;;;1.30;;
29162;SDS011;20331;53.144;8.208;2024-02-23T10:13:20;4.57;;;0.90;;
29162;SDS011;20331;53.144;8.208;2024-02-23T10:18:42;4.00;;;0.93;;
29162;SDS011;20331;53.144;8.208;2024-02-23T10:24:07;5.03;;;0.93;;
29162;SDS011;20331;53.144;8.208;2024-02-23T10:29:30;4.95;;;1.13;;
29162;SDS011;20331;53.144;8.208;2024-02-23T10:34:52;4.50;;;1.20;;
29162;SDS011;20331;53.144;8.208;2024-02-23T10:40:14;5.93;;;1.20;;
29162;SDS011;20331;53.144;8.208;2024-02-23T10:45:38;9.32;;;1.08;;
29162;SDS011;20331;53.144;8.208;2024-02-23T10:51:02;4.40;;;1.00;;
29162;SDS011;20331;53.144;8.208;2024-02-23T10:56:26;7.03;;;1.20;;
29162;SDS011;20331;53.144;8.208;2024-02-23T11:01:51;6.20;;;1.20;;
29162;SDS011;20331;53.144;8.208;2024-02-23T11:07:15;4.73;;;1.17;;
29162;SDS011;20331;53.144;8.208;2024-02-23T11:12:40;7.65;;;1.30;;
29162;SDS011;20331;53.144;8.208;2024-02-23T11:18:01;7.40;;;1.10;;
29162;SDS011;20331;53.144;8.208;2024-02-23T11:23:23;6.80;;;1.30;;
29162;SDS011;20331;53.144;8.208;2024-02-23T11:28:50;4.55;;;1.30;;
29162;SDS011;20331;53.144;8.208;2024-02-23T11:34:21;6.13;;;1.25;;
29162;SDS011;20331;53.144;8.208;2024-02-23T11:39:45;8.20;;;1.23;;
29162;SDS011;20331;53.144;8.208;2024-02-23T11:45:08;8.38;;;1.27;;
29162;SDS011;20331;53.144;8.208;2024-02-23T11:50:29;4.18;;;1.30;;
29162;SDS011;20331;53.144;8.208;2024-02-23T11:55:52;6.18;;;1.30;;
29162;SDS011;20331;53.144;8.208;2024-02-23T12:01:14;3.13;;;1.13;;
29162;SDS011;20331;53.144;8.208;2024-02-23T12:06:35;5.13;;;1.27;;
29162;SDS011;20331;53.144;8.208;2024-02-23T12:11:57;5.65;;;1.30;;
29162;SDS011;20331;53.144;8.208;2024-02-23T12:17:20;8.43;;;1.50;;
29162;SDS011;20331;53.144;8.208;2024-02-23T12:22:42;5.25;;;2.00;;
29162;SDS011;20331;53.144;8.208;2024-02-23T12:28:04;8.77;;;1.45;;
29162;SDS011;20331;53.144;8.208;2024-02-23T12:33:27;1.90;;;1.05;;
29162;SDS011;20331;53.144;8.208;2024-02-23T12:39:10;7.22;;;1.40;;
29162;SDS011;20331;53.144;8.208;2024-02-23T12:44:31;7.38;;;1.50;;
29162;SDS011;20331;53.144;8.208;2024-02-23T12:49:53;7.70;;;1.50;;
29162;SDS011;20331;53.144;8.208;2024-02-23T12:55:15;6.40;;;1.33;;
29162;SDS011;20331;53.144;8.208;2024-02-23T13:00:37;7.18;;;1.35;;
29162;SDS011;20331;53.144;8.208;2024-02-23T13:05:58;3.13;;;1.13;;
29162;SDS011;20331;53.144;8.208;2024-02-23T13:11:21;8.10;;;1.10;;
29162;SDS011;20331;53.144;8.208;2024-02-23T13:16:42;5.10;;;1.10;;
29162;SDS011;20331;53.144;8.208;2024-02-23T13:22:04;4.30;;;1.38;;
29162;SDS011;20331;53.144;8.208;2024-02-23T13:27:26;4.20;;;1.27;;
29162;SDS011;20331;53.144;8.208;2024-02-23T13:32:47;4.72;;;1.27;;
29162;SDS011;20331;53.144;8.208;2024-02-23T13:38:09;4.80;;;1.15;;
29162;SDS011;20331;53.144;8.208;2024-02-23T13:43:31;3.30;;;1.02;;
29162;SDS011;20331;53.144;8.208;2024-02-23T13:49:02;4.13;;;1.20;;
29162;SDS011;20331;53.144;8.208;2024-02-23T13:54:27;6.47;;;1.50;;
29162;SDS011;20331;53.144;8.208;2024-02-23T13:59:48;4.43;;;1.27;;
29162;SDS011;20331;53.144;8.208;2024-02-23T14:05:10;4.32;;;1.10;;
29162;SDS011;20331;53.144;8.208;2024-02-23T14:10:32;4.50;;;0.90;;
29162;SDS011;20331;53.144;8.208;2024-02-23T14:15:54;5.63;;;1.20;;
29162;SDS011;20331;53.144;8.208;2024-02-23T14:21:16;6.00;;;1.08;;
29162;SDS011;20331;53.144;8.208;2024-02-23T14:26:39;6.13;;;1.27;;
29162;SDS011;20331;53.144;8.208;2024-02-23T14:32:01;2.97;;;1.05;;
29162;SDS011;20331;53.144;8.208;2024-02-23T14:37:22;4.22;;;1.00;;
29162;SDS011;20331;53.144;8.208;2024-02-23T14:42:45;5.53;;;1.15;;
29162;SDS011;20331;53.144;8.208;2024-02-23T14:48:06;5.20;;;1.15;;
29162;SDS011;20331;53.144;8.208;2024-02-23T14:53:29;5.05;;;1.30;;
29162;SDS011;20331;53.144;8.208;2024-02-23T14:58:50;5.20;;;1.40;;
29162;SDS011;20331;53.144;8.208;2024-02-23T15:04:12;7.45;;;1.60;;
29162;SDS011;20331;53.144;8.208;2024-02-23T15:09:37;4.50;;;1.33;;
29162;SDS011;20331;53.144;8.208;2024-02-23T15:15:01;3.30;;;1.10;;
29162;SDS011;20331;53.144;8.208;2024-02-23T15:20:25;4.40;;;1.25;;
29162;SDS011;20331;53.144;8.208;2024-02-23T15:25:47;3.08;;;1.10;;
29162;SDS011;20331;53.144;8.208;2024-02-23T15:31:09;5.13;;;1.30;;
29162;SDS011;20331;53.144;8.208;2024-02-23T15:36:33;4.07;;;1.20;;
29162;SDS011;20331;53.144;8.208;2024-02-23T15:41:55;4.53;;;1.00;;
29162;SDS011;20331;53.144;8.208;2024-02-23T15:47:16;3.53;;;1.02;;
29162;SDS011;20331;53.144;8.208;2024-02-23T15:52:38;10.38;;;0.95;;
29162;SDS011;20331;53.144;8.208;2024-02-23T15:58:01;3.70;;;1.35;;
29162;SDS011;20331;53.144;8.208;2024-02-23T16:03:24;7.15;;;1.80;;
29162;SDS011;20331;53.144;8.208;2024-02-23T16:08:46;7.57;;;1.40;;
29162;SDS011;20331;53.144;8.208;2024-02-23T16:14:10;6.97;;;1.48;;
29162;SDS011;20331;53.144;8.208;2024-02-23T16:19:32;3.40;;;1.10;;
29162;SDS011;20331;53.144;8.208;2024-02-23T16:24:53;4.95;;;0.98;;
29162;SDS011;20331;53.144;8.208;2024-02-23T16:30:15;6.35;;;1.40;;
29162;SDS011;20331;53.144;8.208;2024-02-23T16:35:37;4.10;;;1.30;;
29162;SDS011;20331;53.144;8.208;2024-02-23T16:40:59;3.05;;;1.20;;
29162;SDS011;20331;53.144;8.208;2024-02-23T16:46:21;2.63;;;1.33;;
29162;SDS011;20331;53.144;8.208;2024-02-23T16:51:42;9.38;;;1.70;;
29162;SDS011;20331;53.144;8.208;2024-02-23T16:57:04;4.25;;;1.50;;
29162;SDS011;20331;53.144;8.208;2024-02-23T17:02:26;8.77;;;1.95;;
29162;SDS011;20331;53.144;8.208;2024-02-23T17:07:48;3.13;;;1.50;;
29162;SDS011;20331;53.144;8.208;2024-02-23T17:13:10;4.13;;;1.70;;
29162;SDS011;20331;53.144;8.208;2024-02-23T17:18:32;8.38;;;1.85;;
29162;SDS011;20331;53.144;8.208;2024-02-23T17:23:53;3.42;;;1.55;;
29162;SDS011;20331;53.144;8.208;2024-02-23T17:29:15;3.45;;;1.33;;
29162;SDS011;20331;53.144;8.208;2024-02-23T17:34:37;4.60;;;1.73;;
29162;SDS011;20331;53.144;8.208;2024-02-23T17:39:59;5.00;;;1.88;;
29162;SDS011;20331;53.144;8.208;2024-02-23T17:45:20;3.08;;;1.35;;
29162;SDS011;20331;53.144;8.208;2024-02-23T17:50:42;5.18;;;2.08;;
29162;SDS011;20331;53.144;8.208;2024-02-23T17:56:04;5.78;;;1.70;;
29162;SDS011;20331;53.144;8.208;2024-02-23T18:01:26;3.33;;;1.52;;
29162;SDS011;20331;53.144;8.208;2024-02-23T18:06:48;3.53;;;1.30;;
29162;SDS011;20331;53.144;8.208;2024-02-23T18:12:11;4.65;;;1.40;;
29162;SDS011;20331;53.144;8.208;2024-02-23T18:17:33;3.80;;;1.58;;
29162;SDS011;20331;53.144;8.208;2024-02-23T18:22:55;5.95;;;1.77;;
29162;SDS011;20331;53.144;8.208;2024-02-23T18:28:18;4.97;;;1.50;;
29162;SDS011;20331;53.144;8.208;2024-02-23T18:33:39;5.40;;;1.95;;
29162;SDS011;20331;53.144;8.208;2024-02-23T18:39:02;3.85;;;1.67;;
29162;SDS011;20331;53.144;8.208;2024-02-23T18:44:24;6.03;;;2.13;;
29162;SDS011;20331;53.144;8.208;2024-02-23T18:49:45;7.28;;;2.35;;
29162;SDS011;20331;53.144;8.208;2024-02-23T18:55:07;10.50;;;2.33;;
29162;SDS011;20331;53.144;8.208;2024-02-23T19:00:29;5.95;;;1.70;;
29162;SDS011;20331;53.144;8.208;2024-02-23T19:05:51;2.75;;;1.63;;
29162;SDS011;20331;53.144;8.208;2024-02-23T19:11:13;6.45;;;1.80;;
29162;SDS011;20331;53.144;8.208;2024-02-23T19:16:35;8.05;;;1.80;;
29162;SDS011;20331;53.144;8.208;2024-02-23T19:22:03;7.32;;;2.15;;
29162;SDS011;20331;53.144;8.208;2024-02-23T19:27:25;6.22;;;1.92;;
29162;SDS011;20331;53.144;8.208;2024-02-23T19:32:47;7.55;;;1.90;;
29162;SDS011;20331;53.144;8.208;2024-02-23T19:38:09;10.18;;;2.05;;
29162;SDS011;20331;53.144;8.208;2024-02-23T19:43:31;6.32;;;2.15;;
29162;SDS011;20331;53.144;8.208;2024-02-23T19:48:53;8.07;;;2.38;;
29162;SDS011;20331;53.144;8.208;2024-02-23T19:54:14;4.60;;;1.60;;
29162;SDS011;20331;53.144;8.208;2024-02-23T19:59:36;3.92;;;2.08;;
29162;SDS011;20331;53.144;8.208;2024-02-23T20:04:59;2.88;;;1.50;;
29162;SDS011;20331;53.144;8.208;2024-02-23T20:10:21;6.00;;;1.73;;
29162;SDS011;20331;53.144;8.208;2024-02-23T20:15:44;6.90;;;1.92;;
29162;SDS011;20331;53.144;8.208;2024-02-23T20:21:06;5.05;;;1.70;;
29162;SDS011;20331;53.144;8.208;2024-02-23T20:26:27;3.92;;;1.67;;
29162;SDS011;20331;53.144;8.208;2024-02-23T20:31:49;2.80;;;1.48;;
29162;SDS011;20331;53.144;8.208;2024-02-23T20:37:11;4.30;;;1.77;;
29162;SDS011;20331;53.144;8.208;2024-02-23T20:42:32;3.70;;;1.65;;
29162;SDS011;20331;53.144;8.208;2024-02-23T20:47:54;2.65;;;1.60;;
29162;SDS011;20331;53.144;8.208;2024-02-23T20:53:16;4.78;;;1.52;;
29162;SDS011;20331;53.144;8.208;2024-02-23T20:58:38;3.65;;;1.88;;
29162;SDS011;20331;53.144;8.208;2024-02-23T21:04:00;3.63;;;1.60;;
29162;SDS011;20331;53.144;8.208;2024-02-23T21:09:22;3.75;;;2.05;;
29162;SDS011;20331;53.144;8.208;2024-02-23T21:14:44;3.35;;;1.88;;
29162;SDS011;20331;53.144;8.208;2024-02-23T21:20:06;4.70;;;1.70;;
29162;SDS011;20331;53.144;8.208;2024-02-23T21:25:28;5.97;;;1.73;;
29162;SDS011;20331;53.144;8.208;2024-02-23T21:30:50;5.03;;;1.90;;
29162;SDS011;20331;53.144;8.208;2024-02-23T21:36:15;4.50;;;1.70;;
29162;SDS011;20331;53.144;8.208;2024-02-23T21:41:36;4.97;;;1.80;;
29162;SDS011;20331;53.144;8.208;2024-02-23T21:46:58;3.42;;;1.20;;
29162;SDS011;20331;53.144;8.208;2024-02-23T21:52:20;4.38;;;1.63;;
29162;SDS011;20331;53.144;8.208;2024-02-23T21:57:41;5.25;;;1.48;;
29162;SDS011;20331;53.144;8.208;2024-02-23T22:03:03;3.80;;;1.52;;
29162;SDS011;20331;53.144;8.208;2024-02-23T22:08:26;2.78;;;1.50;;
29162;SDS011;20331;53.144;8.208;2024-02-23T22:13:48;1.92;;;1.50;;
29162;SDS011;20331;53.144;8.208;2024-02-23T22:19:10;2.33;;;1.60;;
29162;SDS011;20331;53.144;8.208;2024-02-23T22:24:32;4.75;;;1.70;;
29162;SDS011;20331;53.144;8.208;2024-02-23T22:29:55;4.60;;;1.40;;
29162;SDS011;20331;53.144;8.208;2024-02-23T22:35:18;5.25;;;1.70;;
29162;SDS011;20331;53.144;8.208;2024-02-23T22:40:40;3.95;;;1.83;;
29162;SDS011;20331;53.144;8.208;2024-02-23T22:46:02;4.43;;;1.70;;
29162;SDS011;20331;53.144;8.208;2024-02-23T22:51:24;4.47;;;1.70;;
29162;SDS011;20331;53.144;8.208;2024-02-23T22:56:46;3.83;;;1.42;;
29162;SDS011;20331;53.144;8.208;2024-02-23T23:02:08;6.90;;;1.38;;
29162;SDS011;20331;53.144;8.208;2024-02-23T23:07:30;3.33;;;1.23;;
29162;SDS011;20331;53.144;8.208;2024-02-23T23:12:53;5.90;;;1.50;;
29162;SDS011;20331;53.144;8.208;2024-02-23T23:18:15;4.28;;;1.33;;
29162;SDS011;20331;53.144;8.208;2024-02-23T23:23:37;3.50;;;1.45;;
29162;SDS011;20331;53.144;8.208;2024-02-23T23:28:58;3.83;;;1.52;;
29162;SDS011;20331;53.144;8.208;2024-02-23T23:34:20;7.50;;;1.65;;
29162;SDS011;20331;53.144;8.208;2024-02-23T23:39:42;7.88;;;1.80;;
29162;SDS011;20331;53.144;8.208;2024-02-23T23:45:05;3.42;;;1.48;;
29162;SDS011;20331;53.144;8.208;2024-02-23T23:50:27;3.78;;;1.42;;
29162;SDS011;20331;53.144;8.208;2024-02-23T23:55:49;3.75;;;1.70;;
